Carson, NM (87517)

8:07 PM MDT on August 03, 2015 (GMT -0600)
Los Cordovas /Cuchilla | | Change Station
CLOSE
Current Station
Personal Weather Station
Location: Ranchos De Taos, NM
Elevation: 6778 ft
Nearby Weather Stations

Elev 6778 ft 36.37 °N, 105.65 °W | Updated 27 seconds ago

Overcast
Overcast
77.4 °F
Feels Like 79 °F
N
4.5
Wind Variable Wind from NE
Gusts 7.4 mph

Today
High -- | Low -- °F
--% Chance of Precip.
Yesterday
High -- | Low -- °F
Precip. -- in
6:11 AM 8:06 PM
Waning Gibbous, 82% visible
Pressure 30.20 in
Visibility 10.0 miles
Clouds Few 7000 ft
Scattered Clouds 9500 ft
Heat Index 79 °F
Dew Point 52 °F
Humidity 42%
Rainfall 0.02 in
Snow Depth Not available.
UV 0.0 out of 12
Pollen 6.80 out of 12
Air Quality Not available.
Flu Activity Not available.
METAR KSKX 040155Z AUTO 36009KT 10SM FEW070 SCT095 23/08 A3020 RMK AO1

More Conditions Fewer Conditions

Pressure 30.20 in
Visibility 10.0 miles
Clouds Few 7000 ft
Scattered Clouds 9500 ft
Heat Index 79 °F
Dew Point 52 °F
Humidity 42%
Rainfall 0.02 in
Snow Depth Not available.
UV 0.0 out of 12
Pollen 6.80 out of 12
Air Quality Not available.
Flu Activity Not available.
METAR KSKX 040155Z AUTO 36009KT 10SM FEW070 SCT095 23/08 A3020 RMK AO1

More Conditions Fewer Conditions

10-Day Weather Forecast

×

Almanac

Astronomy

Aug. 03, 2015 Rise Set
Actual Time
Civil Twilight
Nautical Twilight
Astronomical Twilight
Moon
Length of Visible Light
Length of Day
Tomorrow will be .
, % of the Moon is Illuminated

Today's Extremes

State Highs State Lows

Community

WunderPhotos

Upload Photos

1,843,825 photos uploaded!

WunderBlogs® & News

Nearby

Air Quality

  Air Quality AQ Index Pollutant
Not available.

Snow Depth

Station Depth Elevation

Earthquake Activity

City Distance Mag. Time & Date
Minimum magnitude displayed is 2.5.

Coastal Water Temperatures

Place Temperature

Stations

Nearby Weather Stations

Station Location Temp. Windchill Dew Point Humidity Wind Precip. Elev Updated Type